sensor_id;sensor_type;location;lat;lon;timestamp;P1;durP1;ratioP1;P2;durP2;ratioP2
16179;SDS011;8196;49.428;10.906;2023-05-02T00:01:57;10.98;;;9.30;;
16179;SDS011;8196;49.428;10.906;2023-05-02T00:04:24;10.52;;;8.93;;
16179;SDS011;8196;49.428;10.906;2023-05-02T00:06:52;10.30;;;9.00;;
16179;SDS011;8196;49.428;10.906;2023-05-02T00:09:19;12.30;;;9.27;;
16179;SDS011;8196;49.428;10.906;2023-05-02T00:11:46;11.18;;;9.70;;
16179;SDS011;8196;49.428;10.906;2023-05-02T00:14:13;12.17;;;9.60;;
16179;SDS011;8196;49.428;10.906;2023-05-02T00:16:39;11.93;;;9.07;;
16179;SDS011;8196;49.428;10.906;2023-05-02T00:19:06;11.33;;;9.37;;
16179;SDS011;8196;49.428;10.906;2023-05-02T00:21:33;10.60;;;9.30;;
16179;SDS011;8196;49.428;10.906;2023-05-02T00:24:00;12.88;;;9.70;;
16179;SDS011;8196;49.428;10.906;2023-05-02T00:26:26;10.52;;;9.13;;
16179;SDS011;8196;49.428;10.906;2023-05-02T00:28:54;10.60;;;9.15;;
16179;SDS011;8196;49.428;10.906;2023-05-02T00:31:20;9.63;;;8.63;;
16179;SDS011;8196;49.428;10.906;2023-05-02T00:33:47;11.40;;;9.00;;
16179;SDS011;8196;49.428;10.906;2023-05-02T00:36:15;9.70;;;8.70;;
16179;SDS011;8196;49.428;10.906;2023-05-02T00:38:43;11.40;;;9.40;;
16179;SDS011;8196;49.428;10.906;2023-05-02T00:41:10;12.70;;;9.95;;
16179;SDS011;8196;49.428;10.906;2023-05-02T00:43:37;10.60;;;9.38;;
16179;SDS011;8196;49.428;10.906;2023-05-02T00:46:04;11.05;;;9.60;;
16179;SDS011;8196;49.428;10.906;2023-05-02T00:48:33;11.23;;;9.45;;
16179;SDS011;8196;49.428;10.906;2023-05-02T00:51:01;11.10;;;9.37;;
16179;SDS011;8196;49.428;10.906;2023-05-02T00:53:31;11.48;;;9.27;;
16179;SDS011;8196;49.428;10.906;2023-05-02T00:55:58;10.73;;;8.60;;
16179;SDS011;8196;49.428;10.906;2023-05-02T00:58:24;10.15;;;8.02;;
16179;SDS011;8196;49.428;10.906;2023-05-02T01:03:41;10.70;;;8.35;;
16179;SDS011;8196;49.428;10.906;2023-05-02T01:06:19;9.15;;;7.55;;
16179;SDS011;8196;49.428;10.906;2023-05-02T01:08:56;11.68;;;10.18;;
16179;SDS011;8196;49.428;10.906;2023-05-02T01:14:12;14.15;;;10.02;;
16179;SDS011;8196;49.428;10.906;2023-05-02T01:16:40;12.38;;;10.18;;
16179;SDS011;8196;49.428;10.906;2023-05-02T01:19:24;12.30;;;9.73;;
16179;SDS011;8196;49.428;10.906;2023-05-02T01:21:54;10.38;;;9.23;;
16179;SDS011;8196;49.428;10.906;2023-05-02T01:24:25;11.63;;;10.00;;
16179;SDS011;8196;49.428;10.906;2023-05-02T01:27:06;14.38;;;10.35;;
16179;SDS011;8196;49.428;10.906;2023-05-02T01:29:44;12.35;;;9.98;;
16179;SDS011;8196;49.428;10.906;2023-05-02T01:32:12;11.50;;;9.50;;
16179;SDS011;8196;49.428;10.906;2023-05-02T01:34:41;10.93;;;8.88;;
16179;SDS011;8196;49.428;10.906;2023-05-02T01:37:10;10.85;;;8.93;;
16179;SDS011;8196;49.428;10.906;2023-05-02T01:39:38;11.30;;;9.05;;
16179;SDS011;8196;49.428;10.906;2023-05-02T01:42:06;12.00;;;9.50;;
16179;SDS011;8196;49.428;10.906;2023-05-02T01:44:32;11.60;;;9.68;;
16179;SDS011;8196;49.428;10.906;2023-05-02T01:47:01;11.73;;;9.52;;
16179;SDS011;8196;49.428;10.906;2023-05-02T01:49:31;9.77;;;8.73;;
16179;SDS011;8196;49.428;10.906;2023-05-02T01:52:02;8.88;;;7.82;;
16179;SDS011;8196;49.428;10.906;2023-05-02T01:54:33;9.15;;;8.25;;
16179;SDS011;8196;49.428;10.906;2023-05-02T01:57:01;10.70;;;9.38;;
16179;SDS011;8196;49.428;10.906;2023-05-02T01:59:32;11.75;;;9.82;;
16179;SDS011;8196;49.428;10.906;2023-05-02T02:02:00;10.40;;;9.30;;
16179;SDS011;8196;49.428;10.906;2023-05-02T02:04:27;11.63;;;9.77;;
16179;SDS011;8196;49.428;10.906;2023-05-02T02:07:00;11.13;;;9.52;;
16179;SDS011;8196;49.428;10.906;2023-05-02T02:09:29;12.98;;;10.02;;
16179;SDS011;8196;49.428;10.906;2023-05-02T02:14:39;13.48;;;10.57;;
16179;SDS011;8196;49.428;10.906;2023-05-02T02:17:12;12.90;;;10.73;;
16179;SDS011;8196;49.428;10.906;2023-05-02T02:19:41;10.35;;;9.25;;
16179;SDS011;8196;49.428;10.906;2023-05-02T02:22:09;11.57;;;9.43;;
16179;SDS011;8196;49.428;10.906;2023-05-02T02:24:38;12.20;;;9.90;;
16179;SDS011;8196;49.428;10.906;2023-05-02T02:27:06;11.73;;;9.88;;
16179;SDS011;8196;49.428;10.906;2023-05-02T02:29:32;10.60;;;9.25;;
16179;SDS011;8196;49.428;10.906;2023-05-02T02:31:59;10.38;;;9.10;;
16179;SDS011;8196;49.428;10.906;2023-05-02T02:34:26;12.77;;;9.63;;
16179;SDS011;8196;49.428;10.906;2023-05-02T02:36:57;11.15;;;9.73;;
16179;SDS011;8196;49.428;10.906;2023-05-02T02:50:42;13.38;;;10.30;;
16179;SDS011;8196;49.428;10.906;2023-05-02T02:53:19;14.45;;;10.30;;
16179;SDS011;8196;49.428;10.906;2023-05-02T03:01:20;11.37;;;9.80;;
16179;SDS011;8196;49.428;10.906;2023-05-02T03:03:50;12.63;;;9.93;;
16179;SDS011;8196;49.428;10.906;2023-05-02T03:06:18;11.93;;;10.07;;
16179;SDS011;8196;49.428;10.906;2023-05-02T03:08:46;11.30;;;9.93;;
16179;SDS011;8196;49.428;10.906;2023-05-02T03:11:13;12.03;;;10.17;;
16179;SDS011;8196;49.428;10.906;2023-05-02T03:13:39;12.43;;;9.40;;
16179;SDS011;8196;49.428;10.906;2023-05-02T03:18:33;13.02;;;10.23;;
16179;SDS011;8196;49.428;10.906;2023-05-02T03:21:00;11.52;;;10.05;;
16179;SDS011;8196;49.428;10.906;2023-05-02T03:23:27;11.33;;;9.90;;
16179;SDS011;8196;49.428;10.906;2023-05-02T03:25:54;10.57;;;9.20;;
16179;SDS011;8196;49.428;10.906;2023-05-02T03:28:20;11.33;;;9.90;;
16179;SDS011;8196;49.428;10.906;2023-05-02T03:30:47;10.88;;;9.70;;
16179;SDS011;8196;49.428;10.906;2023-05-02T03:33:14;10.47;;;9.07;;
16179;SDS011;8196;49.428;10.906;2023-05-02T03:35:41;10.35;;;9.13;;
16179;SDS011;8196;49.428;10.906;2023-05-02T03:38:07;12.00;;;9.60;;
16179;SDS011;8196;49.428;10.906;2023-05-02T03:40:34;11.15;;;9.73;;
16179;SDS011;8196;49.428;10.906;2023-05-02T03:43:01;10.63;;;9.52;;
16179;SDS011;8196;49.428;10.906;2023-05-02T03:45:28;11.13;;;9.93;;
16179;SDS011;8196;49.428;10.906;2023-05-02T03:47:54;11.73;;;10.48;;
16179;SDS011;8196;49.428;10.906;2023-05-02T03:50:21;11.35;;;10.10;;
16179;SDS011;8196;49.428;10.906;2023-05-02T03:52:48;11.05;;;9.77;;
16179;SDS011;8196;49.428;10.906;2023-05-02T03:55:15;10.43;;;9.32;;
16179;SDS011;8196;49.428;10.906;2023-05-02T03:57:42;12.27;;;10.23;;
16179;SDS011;8196;49.428;10.906;2023-05-02T04:00:09;11.73;;;9.38;;
16179;SDS011;8196;49.428;10.906;2023-05-02T04:02:36;12.02;;;9.30;;
16179;SDS011;8196;49.428;10.906;2023-05-02T04:05:03;10.02;;;9.02;;
16179;SDS011;8196;49.428;10.906;2023-05-02T04:07:33;11.15;;;9.60;;
16179;SDS011;8196;49.428;10.906;2023-05-02T04:10:00;11.13;;;9.45;;
16179;SDS011;8196;49.428;10.906;2023-05-02T04:12:28;13.82;;;10.02;;
16179;SDS011;8196;49.428;10.906;2023-05-02T04:14:54;11.17;;;9.47;;
16179;SDS011;8196;49.428;10.906;2023-05-02T04:17:21;12.07;;;10.10;;
16179;SDS011;8196;49.428;10.906;2023-05-02T04:19:48;10.70;;;9.27;;
16179;SDS011;8196;49.428;10.906;2023-05-02T04:22:15;11.65;;;9.73;;
16179;SDS011;8196;49.428;10.906;2023-05-02T04:24:41;11.18;;;9.68;;
16179;SDS011;8196;49.428;10.906;2023-05-02T04:27:08;12.13;;;10.00;;
16179;SDS011;8196;49.428;10.906;2023-05-02T04:29:38;12.73;;;10.73;;
16179;SDS011;8196;49.428;10.906;2023-05-02T04:32:05;11.52;;;9.85;;
16179;SDS011;8196;49.428;10.906;2023-05-02T04:34:32;10.27;;;9.15;;
16179;SDS011;8196;49.428;10.906;2023-05-02T04:36:59;11.88;;;10.30;;
16179;SDS011;8196;49.428;10.906;2023-05-02T04:39:26;11.20;;;9.40;;
16179;SDS011;8196;49.428;10.906;2023-05-02T04:41:53;11.23;;;9.73;;
16179;SDS011;8196;49.428;10.906;2023-05-02T04:44:20;11.02;;;9.65;;
16179;SDS011;8196;49.428;10.906;2023-05-02T04:46:46;11.87;;;9.53;;
16179;SDS011;8196;49.428;10.906;2023-05-02T04:49:13;11.55;;;10.13;;
16179;SDS011;8196;49.428;10.906;2023-05-02T04:51:40;11.45;;;9.48;;
16179;SDS011;8196;49.428;10.906;2023-05-02T04:54:07;11.00;;;9.10;;
16179;SDS011;8196;49.428;10.906;2023-05-02T04:56:33;10.95;;;9.48;;
16179;SDS011;8196;49.428;10.906;2023-05-02T04:59:00;10.50;;;9.35;;
16179;SDS011;8196;49.428;10.906;2023-05-02T05:01:27;10.57;;;9.47;;
16179;SDS011;8196;49.428;10.906;2023-05-02T05:03:54;11.43;;;9.02;;
16179;SDS011;8196;49.428;10.906;2023-05-02T05:06:21;10.07;;;9.07;;
16179;SDS011;8196;49.428;10.906;2023-05-02T05:08:48;12.00;;;9.55;;
16179;SDS011;8196;49.428;10.906;2023-05-02T05:11:15;10.80;;;8.67;;
16179;SDS011;8196;49.428;10.906;2023-05-02T05:13:42;10.07;;;9.00;;
16179;SDS011;8196;49.428;10.906;2023-05-02T05:16:09;10.57;;;8.88;;
16179;SDS011;8196;49.428;10.906;2023-05-02T05:18:35;10.80;;;9.13;;
16179;SDS011;8196;49.428;10.906;2023-05-02T05:21:06;9.90;;;8.90;;
16179;SDS011;8196;49.428;10.906;2023-05-02T05:23:33;9.90;;;8.90;;
16179;SDS011;8196;49.428;10.906;2023-05-02T05:26:09;11.73;;;9.32;;
16179;SDS011;8196;49.428;10.906;2023-05-02T05:28:37;10.55;;;9.38;;
16179;SDS011;8196;49.428;10.906;2023-05-02T05:31:04;11.80;;;9.67;;
16179;SDS011;8196;49.428;10.906;2023-05-02T05:33:32;10.80;;;9.43;;
16179;SDS011;8196;49.428;10.906;2023-05-02T05:36:05;9.82;;;8.73;;
16179;SDS011;8196;49.428;10.906;2023-05-02T05:38:32;10.05;;;8.60;;
16179;SDS011;8196;49.428;10.906;2023-05-02T05:40:59;10.07;;;8.77;;
16179;SDS011;8196;49.428;10.906;2023-05-02T05:43:26;10.75;;;9.00;;
16179;SDS011;8196;49.428;10.906;2023-05-02T05:45:54;9.90;;;9.00;;
16179;SDS011;8196;49.428;10.906;2023-05-02T05:48:21;10.45;;;8.98;;
16179;SDS011;8196;49.428;10.906;2023-05-02T05:50:49;11.15;;;9.23;;
16179;SDS011;8196;49.428;10.906;2023-05-02T05:53:17;10.77;;;9.48;;
16179;SDS011;8196;49.428;10.906;2023-05-02T05:55:44;10.43;;;8.77;;
16179;SDS011;8196;49.428;10.906;2023-05-02T05:58:12;10.52;;;9.25;;
16179;SDS011;8196;49.428;10.906;2023-05-02T06:00:39;11.90;;;9.37;;
16179;SDS011;8196;49.428;10.906;2023-05-02T06:03:06;10.70;;;9.60;;
16179;SDS011;8196;49.428;10.906;2023-05-02T06:05:35;10.20;;;9.20;;
16179;SDS011;8196;49.428;10.906;2023-05-02T06:08:02;10.10;;;9.07;;
16179;SDS011;8196;49.428;10.906;2023-05-02T06:10:29;11.13;;;9.03;;
16179;SDS011;8196;49.428;10.906;2023-05-02T06:12:56;12.98;;;9.95;;
16179;SDS011;8196;49.428;10.906;2023-05-02T06:15:23;11.85;;;9.70;;
16179;SDS011;8196;49.428;10.906;2023-05-02T06:17:50;11.90;;;10.03;;
16179;SDS011;8196;49.428;10.906;2023-05-02T06:20:17;11.37;;;10.10;;
16179;SDS011;8196;49.428;10.906;2023-05-02T06:22:44;12.52;;;9.55;;
16179;SDS011;8196;49.428;10.906;2023-05-02T06:25:11;10.77;;;9.68;;
16179;SDS011;8196;49.428;10.906;2023-05-02T06:27:38;11.47;;;9.80;;
16179;SDS011;8196;49.428;10.906;2023-05-02T06:30:05;10.65;;;9.55;;
16179;SDS011;8196;49.428;10.906;2023-05-02T06:32:32;10.65;;;9.55;;
16179;SDS011;8196;49.428;10.906;2023-05-02T06:34:59;10.52;;;9.43;;
16179;SDS011;8196;49.428;10.906;2023-05-02T06:37:25;11.30;;;10.10;;
16179;SDS011;8196;49.428;10.906;2023-05-02T06:39:52;12.38;;;9.98;;
16179;SDS011;8196;49.428;10.906;2023-05-02T06:42:19;10.93;;;9.82;;
16179;SDS011;8196;49.428;10.906;2023-05-02T06:44:45;11.88;;;9.88;;
16179;SDS011;8196;49.428;10.906;2023-05-02T06:47:12;10.60;;;9.60;;
16179;SDS011;8196;49.428;10.906;2023-05-02T06:49:39;10.23;;;9.18;;
16179;SDS011;8196;49.428;10.906;2023-05-02T06:52:06;10.55;;;9.45;;
16179;SDS011;8196;49.428;10.906;2023-05-02T06:54:32;10.82;;;9.60;;
16179;SDS011;8196;49.428;10.906;2023-05-02T06:56:59;10.05;;;9.05;;
16179;SDS011;8196;49.428;10.906;2023-05-02T06:59:27;9.70;;;8.65;;
16179;SDS011;8196;49.428;10.906;2023-05-02T07:01:54;11.23;;;9.73;;
16179;SDS011;8196;49.428;10.906;2023-05-02T07:04:20;9.70;;;8.70;;
16179;SDS011;8196;49.428;10.906;2023-05-02T07:06:47;10.48;;;8.52;;
16179;SDS011;8196;49.428;10.906;2023-05-02T07:09:14;11.20;;;8.20;;
16179;SDS011;8196;49.428;10.906;2023-05-02T07:11:41;9.75;;;8.13;;
16179;SDS011;8196;49.428;10.906;2023-05-02T07:14:08;8.63;;;7.83;;
16179;SDS011;8196;49.428;10.906;2023-05-02T07:16:35;8.75;;;7.85;;
16179;SDS011;8196;49.428;10.906;2023-05-02T07:19:02;8.30;;;7.50;;
16179;SDS011;8196;49.428;10.906;2023-05-02T07:21:31;7.73;;;6.83;;
16179;SDS011;8196;49.428;10.906;2023-05-02T07:23:58;9.45;;;6.57;;
16179;SDS011;8196;49.428;10.906;2023-05-02T07:26:26;7.82;;;7.05;;
16179;SDS011;8196;49.428;10.906;2023-05-02T07:28:53;7.40;;;6.60;;
16179;SDS011;8196;49.428;10.906;2023-05-02T07:31:20;8.05;;;6.85;;
16179;SDS011;8196;49.428;10.906;2023-05-02T07:33:47;7.10;;;6.40;;
16179;SDS011;8196;49.428;10.906;2023-05-02T07:36:13;7.47;;;6.67;;
16179;SDS011;8196;49.428;10.906;2023-05-02T07:38:40;7.57;;;6.82;;
16179;SDS011;8196;49.428;10.906;2023-05-02T07:41:07;8.40;;;6.72;;
16179;SDS011;8196;49.428;10.906;2023-05-02T07:43:34;7.28;;;6.57;;
16179;SDS011;8196;49.428;10.906;2023-05-02T07:46:04;7.68;;;6.88;;
16179;SDS011;8196;49.428;10.906;2023-05-02T07:48:31;7.37;;;6.40;;
16179;SDS011;8196;49.428;10.906;2023-05-02T07:51:07;7.60;;;6.38;;
16179;SDS011;8196;49.428;10.906;2023-05-02T07:53:34;8.33;;;6.63;;
16179;SDS011;8196;49.428;10.906;2023-05-02T07:56:02;7.05;;;6.35;;
16179;SDS011;8196;49.428;10.906;2023-05-02T07:58:31;8.10;;;7.05;;
16179;SDS011;8196;49.428;10.906;2023-05-02T08:00:58;7.60;;;6.57;;
16179;SDS011;8196;49.428;10.906;2023-05-02T08:03:25;7.78;;;6.85;;
16179;SDS011;8196;49.428;10.906;2023-05-02T08:05:53;7.43;;;6.72;;
16179;SDS011;8196;49.428;10.906;2023-05-02T08:08:20;7.33;;;6.50;;
16179;SDS011;8196;49.428;10.906;2023-05-02T08:10:47;8.18;;;6.80;;
16179;SDS011;8196;49.428;10.906;2023-05-02T08:13:16;7.68;;;6.75;;
16179;SDS011;8196;49.428;10.906;2023-05-02T08:15:43;7.28;;;6.57;;
16179;SDS011;8196;49.428;10.906;2023-05-02T08:18:10;6.63;;;6.00;;
16179;SDS011;8196;49.428;10.906;2023-05-02T08:20:37;6.63;;;5.77;;
16179;SDS011;8196;49.428;10.906;2023-05-02T08:23:06;6.30;;;5.60;;
16179;SDS011;8196;49.428;10.906;2023-05-02T08:25:33;6.03;;;5.38;;
16179;SDS011;8196;49.428;10.906;2023-05-02T08:28:00;6.75;;;5.82;;
16179;SDS011;8196;49.428;10.906;2023-05-02T08:30:26;6.20;;;5.60;;
16179;SDS011;8196;49.428;10.906;2023-05-02T08:32:53;6.30;;;5.70;;
16179;SDS011;8196;49.428;10.906;2023-05-02T08:35:20;6.03;;;5.43;;
16179;SDS011;8196;49.428;10.906;2023-05-02T08:37:47;7.07;;;5.50;;
16179;SDS011;8196;49.428;10.906;2023-05-02T08:40:13;7.88;;;5.35;;
16179;SDS011;8196;49.428;10.906;2023-05-02T08:42:55;6.53;;;5.40;;
16179;SDS011;8196;49.428;10.906;2023-05-02T08:45:22;5.50;;;5.00;;
16179;SDS011;8196;49.428;10.906;2023-05-02T08:47:53;6.07;;;5.47;;
16179;SDS011;8196;49.428;10.906;2023-05-02T08:50:21;6.32;;;5.15;;
16179;SDS011;8196;49.428;10.906;2023-05-02T08:52:48;5.20;;;4.70;;
16179;SDS011;8196;49.428;10.906;2023-05-02T08:55:16;5.57;;;4.68;;
16179;SDS011;8196;49.428;10.906;2023-05-02T08:57:43;5.30;;;4.50;;
16179;SDS011;8196;49.428;10.906;2023-05-02T09:00:10;5.03;;;4.53;;
16179;SDS011;8196;49.428;10.906;2023-05-02T09:02:57;4.83;;;4.30;;
16179;SDS011;8196;49.428;10.906;2023-05-02T09:08:02;6.25;;;4.50;;
16179;SDS011;8196;49.428;10.906;2023-05-02T09:10:35;6.43;;;5.13;;
16179;SDS011;8196;49.428;10.906;2023-05-02T09:16:05;4.57;;;4.10;;
16179;SDS011;8196;49.428;10.906;2023-05-02T09:18:37;4.63;;;4.13;;
16179;SDS011;8196;49.428;10.906;2023-05-02T09:21:05;4.55;;;3.90;;
16179;SDS011;8196;49.428;10.906;2023-05-02T09:23:34;5.07;;;4.30;;
16179;SDS011;8196;49.428;10.906;2023-05-02T09:28:38;5.50;;;4.35;;
16179;SDS011;8196;49.428;10.906;2023-05-02T09:31:08;5.17;;;4.57;;
16179;SDS011;8196;49.428;10.906;2023-05-02T09:33:37;4.72;;;4.30;;
16179;SDS011;8196;49.428;10.906;2023-05-02T09:36:05;5.22;;;4.45;;
16179;SDS011;8196;49.428;10.906;2023-05-02T09:38:32;5.85;;;5.35;;
16179;SDS011;8196;49.428;10.906;2023-05-02T09:40:59;4.82;;;4.00;;
16179;SDS011;8196;49.428;10.906;2023-05-02T09:43:29;5.28;;;4.78;;
16179;SDS011;8196;49.428;10.906;2023-05-02T09:45:57;4.97;;;4.55;;
16179;SDS011;8196;49.428;10.906;2023-05-02T09:48:26;7.00;;;4.25;;
16179;SDS011;8196;49.428;10.906;2023-05-02T09:50:54;4.93;;;4.43;;
16179;SDS011;8196;49.428;10.906;2023-05-02T09:53:23;5.95;;;4.70;;
16179;SDS011;8196;49.428;10.906;2023-05-02T09:56:00;6.40;;;4.30;;
16179;SDS011;8196;49.428;10.906;2023-05-02T09:58:27;6.20;;;4.67;;
16179;SDS011;8196;49.428;10.906;2023-05-02T10:00:56;5.32;;;4.43;;
16179;SDS011;8196;49.428;10.906;2023-05-02T10:03:24;5.68;;;5.05;;
16179;SDS011;8196;49.428;10.906;2023-05-02T10:05:52;5.38;;;4.22;;
16179;SDS011;8196;49.428;10.906;2023-05-02T10:08:20;5.03;;;3.92;;
16179;SDS011;8196;49.428;10.906;2023-05-02T10:10:51;5.43;;;4.50;;
16179;SDS011;8196;49.428;10.906;2023-05-02T10:13:20;4.57;;;4.10;;
16179;SDS011;8196;49.428;10.906;2023-05-02T10:15:52;5.00;;;4.40;;
16179;SDS011;8196;49.428;10.906;2023-05-02T10:18:26;5.85;;;4.97;;
16179;SDS011;8196;49.428;10.906;2023-05-02T10:20:56;6.47;;;4.85;;
16179;SDS011;8196;49.428;10.906;2023-05-02T10:23:25;6.15;;;5.65;;
16179;SDS011;8196;49.428;10.906;2023-05-02T10:25:53;4.88;;;4.43;;
16179;SDS011;8196;49.428;10.906;2023-05-02T10:28:22;5.28;;;4.35;;
16179;SDS011;8196;49.428;10.906;2023-05-02T10:30:50;5.10;;;4.60;;
16179;SDS011;8196;49.428;10.906;2023-05-02T10:33:19;6.55;;;4.93;;
16179;SDS011;8196;49.428;10.906;2023-05-02T10:35:47;5.07;;;4.40;;
16179;SDS011;8196;49.428;10.906;2023-05-02T10:38:16;5.40;;;4.80;;
16179;SDS011;8196;49.428;10.906;2023-05-02T10:40:50;5.90;;;5.30;;
16179;SDS011;8196;49.428;10.906;2023-05-02T10:43:22;6.33;;;5.23;;
16179;SDS011;8196;49.428;10.906;2023-05-02T10:45:51;5.38;;;4.80;;
16179;SDS011;8196;49.428;10.906;2023-05-02T10:50:48;5.18;;;4.78;;
16179;SDS011;8196;49.428;10.906;2023-05-02T10:53:20;5.60;;;5.10;;
16179;SDS011;8196;49.428;10.906;2023-05-02T10:58:47;5.60;;;5.00;;
16179;SDS011;8196;49.428;10.906;2023-05-02T11:04:05;5.65;;;5.05;;
16179;SDS011;8196;49.428;10.906;2023-05-02T11:06:34;7.00;;;5.40;;
16179;SDS011;8196;49.428;10.906;2023-05-02T11:11:41;5.32;;;4.82;;
16179;SDS011;8196;49.428;10.906;2023-05-02T11:14:09;5.45;;;4.95;;
16179;SDS011;8196;49.428;10.906;2023-05-02T11:19:25;6.72;;;5.60;;
16179;SDS011;8196;49.428;10.906;2023-05-02T11:24:44;5.97;;;5.38;;
16179;SDS011;8196;49.428;10.906;2023-05-02T11:29:56;6.47;;;5.83;;
16179;SDS011;8196;49.428;10.906;2023-05-02T11:35:16;7.95;;;6.03;;
16179;SDS011;8196;49.428;10.906;2023-05-02T11:37:53;6.35;;;5.63;;
16179;SDS011;8196;49.428;10.906;2023-05-02T11:40:22;6.38;;;5.78;;
16179;SDS011;8196;49.428;10.906;2023-05-02T11:42:50;6.43;;;5.55;;
16179;SDS011;8196;49.428;10.906;2023-05-02T11:45:17;6.38;;;5.70;;
16179;SDS011;8196;49.428;10.906;2023-05-02T11:47:43;6.10;;;5.50;;
16179;SDS011;8196;49.428;10.906;2023-05-02T11:50:13;6.43;;;5.80;;
16179;SDS011;8196;49.428;10.906;2023-05-02T11:52:40;7.68;;;5.65;;
16179;SDS011;8196;49.428;10.906;2023-05-02T11:55:11;7.35;;;5.35;;
16179;SDS011;8196;49.428;10.906;2023-05-02T11:57:39;5.75;;;5.20;;
16179;SDS011;8196;49.428;10.906;2023-05-02T12:00:06;5.47;;;4.70;;
16179;SDS011;8196;49.428;10.906;2023-05-02T12:02:34;5.40;;;4.90;;
16179;SDS011;8196;49.428;10.906;2023-05-02T12:05:03;5.13;;;4.60;;
16179;SDS011;8196;49.428;10.906;2023-05-02T12:07:35;4.45;;;3.80;;
16179;SDS011;8196;49.428;10.906;2023-05-02T12:10:04;4.57;;;4.10;;
16179;SDS011;8196;49.428;10.906;2023-05-02T12:12:32;4.97;;;3.83;;
16179;SDS011;8196;49.428;10.906;2023-05-02T12:15:02;5.78;;;4.45;;
16179;SDS011;8196;49.428;10.906;2023-05-02T12:17:31;5.88;;;4.50;;
16179;SDS011;8196;49.428;10.906;2023-05-02T12:19:59;7.28;;;5.10;;
16179;SDS011;8196;49.428;10.906;2023-05-02T12:22:29;5.82;;;5.00;;
16179;SDS011;8196;49.428;10.906;2023-05-02T12:24:56;5.05;;;4.63;;
16179;SDS011;8196;49.428;10.906;2023-05-02T12:27:24;6.60;;;5.22;;
16179;SDS011;8196;49.428;10.906;2023-05-02T12:29:52;6.70;;;5.43;;
16179;SDS011;8196;49.428;10.906;2023-05-02T12:32:27;8.90;;;5.60;;
16179;SDS011;8196;49.428;10.906;2023-05-02T12:34:56;9.93;;;6.83;;
16179;SDS011;8196;49.428;10.906;2023-05-02T12:37:23;7.32;;;6.38;;
16179;SDS011;8196;49.428;10.906;2023-05-02T12:39:52;10.60;;;7.32;;
16179;SDS011;8196;49.428;10.906;2023-05-02T12:42:21;9.75;;;7.07;;
16179;SDS011;8196;49.428;10.906;2023-05-02T12:44:49;7.20;;;6.38;;
16179;SDS011;8196;49.428;10.906;2023-05-02T12:47:17;8.25;;;6.65;;
16179;SDS011;8196;49.428;10.906;2023-05-02T12:49:54;6.43;;;5.68;;
16179;SDS011;8196;49.428;10.906;2023-05-02T12:55:27;5.50;;;4.80;;
16179;SDS011;8196;49.428;10.906;2023-05-02T12:58:02;5.30;;;4.80;;
16179;SDS011;8196;49.428;10.906;2023-05-02T13:00:34;6.13;;;5.35;;
16179;SDS011;8196;49.428;10.906;2023-05-02T13:03:02;5.35;;;4.80;;
16179;SDS011;8196;49.428;10.906;2023-05-02T13:05:30;8.40;;;5.77;;
16179;SDS011;8196;49.428;10.906;2023-05-02T13:07:57;7.00;;;5.55;;
16179;SDS011;8196;49.428;10.906;2023-05-02T13:10:24;7.53;;;6.03;;
16179;SDS011;8196;49.428;10.906;2023-05-02T13:12:52;7.55;;;5.97;;
16179;SDS011;8196;49.428;10.906;2023-05-02T13:15:20;7.15;;;6.30;;
16179;SDS011;8196;49.428;10.906;2023-05-02T13:17:48;8.88;;;6.72;;
16179;SDS011;8196;49.428;10.906;2023-05-02T13:20:16;9.05;;;7.00;;
16179;SDS011;8196;49.428;10.906;2023-05-02T13:22:44;8.07;;;7.28;;
16179;SDS011;8196;49.428;10.906;2023-05-02T13:25:11;10.32;;;7.43;;
16179;SDS011;8196;49.428;10.906;2023-05-02T13:27:37;8.43;;;7.30;;
16179;SDS011;8196;49.428;10.906;2023-05-02T13:30:06;8.13;;;7.25;;
16179;SDS011;8196;49.428;10.906;2023-05-02T13:32:34;6.70;;;6.00;;
16179;SDS011;8196;49.428;10.906;2023-05-02T13:35:01;5.80;;;5.20;;
16179;SDS011;8196;49.428;10.906;2023-05-02T13:37:28;6.45;;;4.72;;
16179;SDS011;8196;49.428;10.906;2023-05-02T13:39:55;5.15;;;4.57;;
16179;SDS011;8196;49.428;10.906;2023-05-02T13:42:22;4.68;;;4.28;;
16179;SDS011;8196;49.428;10.906;2023-05-02T13:44:49;5.22;;;4.60;;
16179;SDS011;8196;49.428;10.906;2023-05-02T13:47:15;4.15;;;3.75;;
16179;SDS011;8196;49.428;10.906;2023-05-02T13:49:48;4.50;;;4.10;;
16179;SDS011;8196;49.428;10.906;2023-05-02T13:52:15;4.75;;;4.18;;
16179;SDS011;8196;49.428;10.906;2023-05-02T13:54:42;5.38;;;3.60;;
16179;SDS011;8196;49.428;10.906;2023-05-02T13:57:09;4.32;;;3.50;;
16179;SDS011;8196;49.428;10.906;2023-05-02T13:59:35;3.38;;;3.03;;
16179;SDS011;8196;49.428;10.906;2023-05-02T14:02:02;3.55;;;3.20;;
16179;SDS011;8196;49.428;10.906;2023-05-02T14:04:30;3.53;;;3.22;;
16179;SDS011;8196;49.428;10.906;2023-05-02T14:06:57;5.40;;;4.03;;
16179;SDS011;8196;49.428;10.906;2023-05-02T14:09:24;4.10;;;3.30;;
16179;SDS011;8196;49.428;10.906;2023-05-02T14:11:50;3.50;;;3.20;;
16179;SDS011;8196;49.428;10.906;2023-05-02T14:14:19;4.07;;;3.67;;
16179;SDS011;8196;49.428;10.906;2023-05-02T14:16:46;3.80;;;3.40;;
16179;SDS011;8196;49.428;10.906;2023-05-02T14:19:15;3.25;;;2.95;;
16179;SDS011;8196;49.428;10.906;2023-05-02T14:21:43;3.70;;;3.40;;
16179;SDS011;8196;49.428;10.906;2023-05-02T14:24:09;3.63;;;3.22;;
16179;SDS011;8196;49.428;10.906;2023-05-02T14:26:37;3.42;;;3.13;;
16179;SDS011;8196;49.428;10.906;2023-05-02T14:29:04;3.58;;;3.28;;
16179;SDS011;8196;49.428;10.906;2023-05-02T14:31:31;4.20;;;2.90;;
16179;SDS011;8196;49.428;10.906;2023-05-02T14:33:58;3.33;;;2.53;;
16179;SDS011;8196;49.428;10.906;2023-05-02T14:36:24;2.60;;;2.38;;
16179;SDS011;8196;49.428;10.906;2023-05-02T14:38:52;2.70;;;2.08;;
16179;SDS011;8196;49.428;10.906;2023-05-02T14:41:18;2.20;;;2.10;;
16179;SDS011;8196;49.428;10.906;2023-05-02T14:43:46;2.35;;;2.15;;
16179;SDS011;8196;49.428;10.906;2023-05-02T14:46:13;2.03;;;1.92;;
16179;SDS011;8196;49.428;10.906;2023-05-02T14:48:40;2.10;;;1.90;;
16179;SDS011;8196;49.428;10.906;2023-05-02T14:51:06;2.28;;;2.00;;
16179;SDS011;8196;49.428;10.906;2023-05-02T14:53:33;2.03;;;1.60;;
16179;SDS011;8196;49.428;10.906;2023-05-02T14:56:00;2.20;;;1.60;;
16179;SDS011;8196;49.428;10.906;2023-05-02T14:58:27;1.98;;;1.80;;
16179;SDS011;8196;49.428;10.906;2023-05-02T15:00:53;2.00;;;1.90;;
16179;SDS011;8196;49.428;10.906;2023-05-02T15:03:20;2.50;;;1.65;;
16179;SDS011;8196;49.428;10.906;2023-05-02T15:05:47;1.65;;;1.55;;
16179;SDS011;8196;49.428;10.906;2023-05-02T15:08:14;1.90;;;1.30;;
16179;SDS011;8196;49.428;10.906;2023-05-02T15:10:41;1.80;;;1.70;;
16179;SDS011;8196;49.428;10.906;2023-05-02T15:13:07;3.05;;;1.55;;
16179;SDS011;8196;49.428;10.906;2023-05-02T15:15:34;1.83;;;1.73;;
16179;SDS011;8196;49.428;10.906;2023-05-02T15:18:02;1.63;;;1.52;;
16179;SDS011;8196;49.428;10.906;2023-05-02T15:20:29;1.83;;;1.73;;
16179;SDS011;8196;49.428;10.906;2023-05-02T15:22:56;1.70;;;1.60;;
16179;SDS011;8196;49.428;10.906;2023-05-02T15:25:28;4.40;;;2.17;;
16179;SDS011;8196;49.428;10.906;2023-05-02T15:27:56;1.92;;;1.73;;
16179;SDS011;8196;49.428;10.906;2023-05-02T15:30:23;2.35;;;2.13;;
16179;SDS011;8196;49.428;10.906;2023-05-02T15:32:50;2.33;;;1.90;;
16179;SDS011;8196;49.428;10.906;2023-05-02T15:35:17;2.40;;;2.20;;
16179;SDS011;8196;49.428;10.906;2023-05-02T15:37:44;2.33;;;2.13;;
16179;SDS011;8196;49.428;10.906;2023-05-02T15:40:13;2.78;;;2.00;;
16179;SDS011;8196;49.428;10.906;2023-05-02T15:42:40;3.22;;;2.20;;
16179;SDS011;8196;49.428;10.906;2023-05-02T15:45:08;2.63;;;2.10;;
16179;SDS011;8196;49.428;10.906;2023-05-02T15:47:40;2.78;;;2.13;;